sensor_id;sensor_type;location;lat;lon;timestamp;P1;durP1;ratioP1;P2;durP2;ratioP2
57599;SDS011;43426;43.594;24.334;2023-07-08T00:00:55;6.75;;;5.95;;
57599;SDS011;43426;43.594;24.334;2023-07-08T00:03:20;6.07;;;5.57;;
57599;SDS011;43426;43.594;24.334;2023-07-08T00:05:50;8.02;;;6.18;;
57599;SDS011;43426;43.594;24.334;2023-07-08T00:08:21;6.25;;;5.70;;
57599;SDS011;43426;43.594;24.334;2023-07-08T00:10:49;5.80;;;5.30;;
57599;SDS011;43426;43.594;24.334;2023-07-08T00:13:16;6.60;;;6.00;;
57599;SDS011;43426;43.594;24.334;2023-07-08T00:15:46;6.47;;;5.88;;
57599;SDS011;43426;43.594;24.334;2023-07-08T00:18:12;6.18;;;5.57;;
57599;SDS011;43426;43.594;24.334;2023-07-08T00:20:42;7.90;;;5.93;;
57599;SDS011;43426;43.594;24.334;2023-07-08T00:23:10;6.47;;;5.53;;
57599;SDS011;43426;43.594;24.334;2023-07-08T00:25:36;9.65;;;5.82;;
57599;SDS011;43426;43.594;24.334;2023-07-08T00:28:02;6.45;;;5.78;;
57599;SDS011;43426;43.594;24.334;2023-07-08T00:30:53;10.15;;;5.93;;
57599;SDS011;43426;43.594;24.334;2023-07-08T00:33:19;7.85;;;5.82;;
57599;SDS011;43426;43.594;24.334;2023-07-08T00:35:45;7.00;;;6.28;;
57599;SDS011;43426;43.594;24.334;2023-07-08T00:38:21;7.05;;;6.47;;
57599;SDS011;43426;43.594;24.334;2023-07-08T00:40:52;8.43;;;6.05;;
57599;SDS011;43426;43.594;24.334;2023-07-08T00:43:38;6.93;;;5.25;;
57599;SDS011;43426;43.594;24.334;2023-07-08T00:46:12;6.68;;;6.07;;
57599;SDS011;43426;43.594;24.334;2023-07-08T00:48:38;6.35;;;5.70;;
57599;SDS011;43426;43.594;24.334;2023-07-08T00:51:10;7.07;;;6.47;;
57599;SDS011;43426;43.594;24.334;2023-07-08T00:53:37;7.05;;;6.43;;
57599;SDS011;43426;43.594;24.334;2023-07-08T00:56:08;11.35;;;6.32;;
57599;SDS011;43426;43.594;24.334;2023-07-08T00:58:44;7.28;;;6.63;;
57599;SDS011;43426;43.594;24.334;2023-07-08T01:01:13;10.45;;;6.65;;
57599;SDS011;43426;43.594;24.334;2023-07-08T01:03:57;7.65;;;6.55;;
57599;SDS011;43426;43.594;24.334;2023-07-08T01:06:32;7.03;;;6.32;;
57599;SDS011;43426;43.594;24.334;2023-07-08T01:09:05;6.60;;;6.03;;
57599;SDS011;43426;43.594;24.334;2023-07-08T01:11:35;7.32;;;6.18;;
57599;SDS011;43426;43.594;24.334;2023-07-08T01:14:04;7.65;;;7.00;;
57599;SDS011;43426;43.594;24.334;2023-07-08T01:16:35;7.30;;;6.75;;
57599;SDS011;43426;43.594;24.334;2023-07-08T01:19:01;7.63;;;6.95;;
57599;SDS011;43426;43.594;24.334;2023-07-08T01:21:36;7.55;;;6.95;;
57599;SDS011;43426;43.594;24.334;2023-07-08T01:24:14;7.78;;;7.07;;
57599;SDS011;43426;43.594;24.334;2023-07-08T01:26:42;7.85;;;7.07;;
57599;SDS011;43426;43.594;24.334;2023-07-08T01:29:11;6.90;;;6.30;;
57599;SDS011;43426;43.594;24.334;2023-07-08T01:31:37;7.57;;;6.68;;
57599;SDS011;43426;43.594;24.334;2023-07-08T01:34:05;7.90;;;6.90;;
57599;SDS011;43426;43.594;24.334;2023-07-08T01:36:38;8.00;;;7.30;;
57599;SDS011;43426;43.594;24.334;2023-07-08T01:39:20;11.80;;;7.53;;
57599;SDS011;43426;43.594;24.334;2023-07-08T01:41:49;8.30;;;7.57;;
57599;SDS011;43426;43.594;24.334;2023-07-08T01:44:27;7.88;;;7.28;;
57599;SDS011;43426;43.594;24.334;2023-07-08T01:47:11;8.32;;;7.63;;
57599;SDS011;43426;43.594;24.334;2023-07-08T01:49:45;7.95;;;7.20;;
57599;SDS011;43426;43.594;24.334;2023-07-08T01:52:12;9.15;;;7.93;;
57599;SDS011;43426;43.594;24.334;2023-07-08T01:54:44;8.85;;;7.93;;
57599;SDS011;43426;43.594;24.334;2023-07-08T01:57:09;9.90;;;9.00;;
57599;SDS011;43426;43.594;24.334;2023-07-08T01:59:35;11.60;;;10.68;;
57599;SDS011;43426;43.594;24.334;2023-07-08T02:02:03;11.77;;;10.75;;
57599;SDS011;43426;43.594;24.334;2023-07-08T02:04:31;12.85;;;11.75;;
57599;SDS011;43426;43.594;24.334;2023-07-08T02:07:05;12.02;;;10.90;;
57599;SDS011;43426;43.594;24.334;2023-07-08T02:09:33;13.75;;;12.52;;
57599;SDS011;43426;43.594;24.334;2023-07-08T02:12:03;14.48;;;13.07;;
57599;SDS011;43426;43.594;24.334;2023-07-08T02:14:32;13.77;;;11.63;;
57599;SDS011;43426;43.594;24.334;2023-07-08T02:17:04;14.25;;;12.77;;
57599;SDS011;43426;43.594;24.334;2023-07-08T02:19:32;13.30;;;12.00;;
57599;SDS011;43426;43.594;24.334;2023-07-08T02:21:59;13.93;;;12.73;;
57599;SDS011;43426;43.594;24.334;2023-07-08T02:24:28;19.95;;;12.60;;
57599;SDS011;43426;43.594;24.334;2023-07-08T02:26:56;14.85;;;13.38;;
57599;SDS011;43426;43.594;24.334;2023-07-08T02:29:22;13.75;;;12.43;;
57599;SDS011;43426;43.594;24.334;2023-07-08T02:31:55;14.23;;;12.68;;
57599;SDS011;43426;43.594;24.334;2023-07-08T02:34:25;12.73;;;11.63;;
57599;SDS011;43426;43.594;24.334;2023-07-08T02:36:54;12.60;;;11.63;;
57599;SDS011;43426;43.594;24.334;2023-07-08T02:39:21;14.70;;;13.30;;
57599;SDS011;43426;43.594;24.334;2023-07-08T02:41:47;13.98;;;12.68;;
57599;SDS011;43426;43.594;24.334;2023-07-08T02:44:12;14.23;;;12.68;;
57599;SDS011;43426;43.594;24.334;2023-07-08T02:46:40;15.15;;;13.73;;
57599;SDS011;43426;43.594;24.334;2023-07-08T02:49:06;15.85;;;14.25;;
57599;SDS011;43426;43.594;24.334;2023-07-08T02:51:32;15.90;;;14.27;;
57599;SDS011;43426;43.594;24.334;2023-07-08T02:54:00;17.65;;;15.93;;
57599;SDS011;43426;43.594;24.334;2023-07-08T02:56:32;17.08;;;15.40;;
57599;SDS011;43426;43.594;24.334;2023-07-08T02:59:00;14.85;;;13.45;;
57599;SDS011;43426;43.594;24.334;2023-07-08T03:01:25;15.30;;;13.82;;
57599;SDS011;43426;43.594;24.334;2023-07-08T03:03:51;15.32;;;13.93;;
57599;SDS011;43426;43.594;24.334;2023-07-08T03:06:21;16.73;;;14.95;;
57599;SDS011;43426;43.594;24.334;2023-07-08T03:08:47;16.65;;;15.05;;
57599;SDS011;43426;43.594;24.334;2023-07-08T03:11:15;20.23;;;15.05;;
57599;SDS011;43426;43.594;24.334;2023-07-08T03:13:42;16.95;;;15.25;;
57599;SDS011;43426;43.594;24.334;2023-07-08T03:16:10;18.98;;;16.20;;
57599;SDS011;43426;43.594;24.334;2023-07-08T03:18:40;17.35;;;15.45;;
57599;SDS011;43426;43.594;24.334;2023-07-08T03:21:13;17.52;;;15.82;;
57599;SDS011;43426;43.594;24.334;2023-07-08T03:23:41;18.90;;;15.80;;
57599;SDS011;43426;43.594;24.334;2023-07-08T03:26:07;17.00;;;15.25;;
57599;SDS011;43426;43.594;24.334;2023-07-08T03:28:35;17.88;;;16.25;;
57599;SDS011;43426;43.594;24.334;2023-07-08T03:31:01;18.75;;;15.93;;
57599;SDS011;43426;43.594;24.334;2023-07-08T03:33:26;18.48;;;16.65;;
57599;SDS011;43426;43.594;24.334;2023-07-08T03:36:00;17.23;;;14.80;;
57599;SDS011;43426;43.594;24.334;2023-07-08T03:38:27;16.95;;;15.35;;
57599;SDS011;43426;43.594;24.334;2023-07-08T03:40:52;20.42;;;18.45;;
57599;SDS011;43426;43.594;24.334;2023-07-08T03:43:18;18.25;;;16.25;;
57599;SDS011;43426;43.594;24.334;2023-07-08T03:45:48;21.25;;;16.40;;
57599;SDS011;43426;43.594;24.334;2023-07-08T03:48:17;24.08;;;17.27;;
57599;SDS011;43426;43.594;24.334;2023-07-08T03:50:45;18.10;;;16.17;;
57599;SDS011;43426;43.594;24.334;2023-07-08T03:53:11;19.80;;;16.33;;
57599;SDS011;43426;43.594;24.334;2023-07-08T03:55:42;18.70;;;16.90;;
57599;SDS011;43426;43.594;24.334;2023-07-08T03:58:10;18.50;;;15.88;;
57599;SDS011;43426;43.594;24.334;2023-07-08T04:00:40;22.13;;;16.55;;
57599;SDS011;43426;43.594;24.334;2023-07-08T04:03:08;19.40;;;15.93;;
57599;SDS011;43426;43.594;24.334;2023-07-08T04:05:41;18.95;;;15.68;;
57599;SDS011;43426;43.594;24.334;2023-07-08T04:08:09;16.88;;;15.07;;
57599;SDS011;43426;43.594;24.334;2023-07-08T04:10:37;15.93;;;14.35;;
57599;SDS011;43426;43.594;24.334;2023-07-08T04:13:03;17.08;;;14.52;;
57599;SDS011;43426;43.594;24.334;2023-07-08T04:15:31;15.38;;;13.82;;
57599;SDS011;43426;43.594;24.334;2023-07-08T04:17:56;15.05;;;13.65;;
57599;SDS011;43426;43.594;24.334;2023-07-08T04:20:22;14.55;;;13.18;;
57599;SDS011;43426;43.594;24.334;2023-07-08T04:22:53;15.55;;;13.93;;
57599;SDS011;43426;43.594;24.334;2023-07-08T04:25:21;14.48;;;12.70;;
57599;SDS011;43426;43.594;24.334;2023-07-08T04:27:52;14.70;;;13.20;;
57599;SDS011;43426;43.594;24.334;2023-07-08T04:30:20;12.25;;;11.15;;
57599;SDS011;43426;43.594;24.334;2023-07-08T04:32:51;12.88;;;11.68;;
57599;SDS011;43426;43.594;24.334;2023-07-08T04:35:17;13.00;;;11.70;;
57599;SDS011;43426;43.594;24.334;2023-07-08T04:37:45;11.95;;;10.80;;
57599;SDS011;43426;43.594;24.334;2023-07-08T04:40:14;11.88;;;10.65;;
57599;SDS011;43426;43.594;24.334;2023-07-08T04:42:46;10.23;;;9.27;;
57599;SDS011;43426;43.594;24.334;2023-07-08T04:45:16;8.00;;;7.40;;
57599;SDS011;43426;43.594;24.334;2023-07-08T04:47:45;7.03;;;6.18;;
57599;SDS011;43426;43.594;24.334;2023-07-08T04:50:17;5.60;;;5.10;;
57599;SDS011;43426;43.594;24.334;2023-07-08T04:52:45;6.97;;;5.13;;
57599;SDS011;43426;43.594;24.334;2023-07-08T04:55:12;5.32;;;4.82;;
57599;SDS011;43426;43.594;24.334;2023-07-08T04:57:42;5.57;;;5.05;;
57599;SDS011;43426;43.594;24.334;2023-07-08T05:00:09;11.50;;;4.65;;
57599;SDS011;43426;43.594;24.334;2023-07-08T05:02:46;5.07;;;4.65;;
57599;SDS011;43426;43.594;24.334;2023-07-08T05:05:21;7.78;;;4.47;;
57599;SDS011;43426;43.594;24.334;2023-07-08T05:07:46;5.03;;;4.47;;
57599;SDS011;43426;43.594;24.334;2023-07-08T05:10:15;4.90;;;4.50;;
57599;SDS011;43426;43.594;24.334;2023-07-08T05:12:44;4.53;;;4.22;;
57599;SDS011;43426;43.594;24.334;2023-07-08T05:15:15;6.93;;;4.60;;
57599;SDS011;43426;43.594;24.334;2023-07-08T05:17:44;4.60;;;4.22;;
57599;SDS011;43426;43.594;24.334;2023-07-08T05:20:12;4.35;;;3.90;;
57599;SDS011;43426;43.594;24.334;2023-07-08T05:22:45;15.50;;;4.30;;
57599;SDS011;43426;43.594;24.334;2023-07-08T05:25:22;5.60;;;3.90;;
57599;SDS011;43426;43.594;24.334;2023-07-08T05:27:50;4.80;;;3.60;;
57599;SDS011;43426;43.594;24.334;2023-07-08T05:30:21;4.38;;;3.97;;
57599;SDS011;43426;43.594;24.334;2023-07-08T05:32:52;5.00;;;4.18;;
57599;SDS011;43426;43.594;24.334;2023-07-08T05:35:18;4.32;;;3.75;;
57599;SDS011;43426;43.594;24.334;2023-07-08T05:37:44;8.18;;;4.38;;
57599;SDS011;43426;43.594;24.334;2023-07-08T05:40:12;4.95;;;4.30;;
57599;SDS011;43426;43.594;24.334;2023-07-08T05:42:37;4.95;;;3.67;;
57599;SDS011;43426;43.594;24.334;2023-07-08T05:45:03;3.78;;;3.47;;
57599;SDS011;43426;43.594;24.334;2023-07-08T05:47:35;4.53;;;4.15;;
57599;SDS011;43426;43.594;24.334;2023-07-08T05:50:03;4.30;;;4.00;;
57599;SDS011;43426;43.594;24.334;2023-07-08T05:52:29;4.50;;;4.20;;
57599;SDS011;43426;43.594;24.334;2023-07-08T05:54:55;4.78;;;4.38;;
57599;SDS011;43426;43.594;24.334;2023-07-08T05:57:25;4.72;;;4.30;;
57599;SDS011;43426;43.594;24.334;2023-07-08T05:59:50;5.05;;;3.72;;
57599;SDS011;43426;43.594;24.334;2023-07-08T06:02:18;4.95;;;4.15;;
57599;SDS011;43426;43.594;24.334;2023-07-08T06:04:46;4.40;;;4.00;;
57599;SDS011;43426;43.594;24.334;2023-07-08T06:07:17;5.05;;;3.92;;
57599;SDS011;43426;43.594;24.334;2023-07-08T06:09:43;4.40;;;4.10;;
57599;SDS011;43426;43.594;24.334;2023-07-08T06:12:12;4.88;;;4.40;;
57599;SDS011;43426;43.594;24.334;2023-07-08T06:14:39;4.80;;;4.40;;
57599;SDS011;43426;43.594;24.334;2023-07-08T06:17:08;4.82;;;4.43;;
57599;SDS011;43426;43.594;24.334;2023-07-08T06:19:36;6.13;;;4.60;;
57599;SDS011;43426;43.594;24.334;2023-07-08T06:22:04;4.43;;;3.95;;
57599;SDS011;43426;43.594;24.334;2023-07-08T06:24:35;5.35;;;4.47;;
57599;SDS011;43426;43.594;24.334;2023-07-08T06:27:03;5.63;;;4.28;;
57599;SDS011;43426;43.594;24.334;2023-07-08T06:29:32;5.53;;;5.03;;
57599;SDS011;43426;43.594;24.334;2023-07-08T06:32:04;4.72;;;4.43;;
57599;SDS011;43426;43.594;24.334;2023-07-08T06:34:33;4.60;;;4.15;;
57599;SDS011;43426;43.594;24.334;2023-07-08T06:36:58;4.75;;;4.22;;
57599;SDS011;43426;43.594;24.334;2023-07-08T06:39:25;4.85;;;4.45;;
57599;SDS011;43426;43.594;24.334;2023-07-08T06:41:51;7.55;;;4.82;;
57599;SDS011;43426;43.594;24.334;2023-07-08T06:44:22;5.57;;;4.55;;
57599;SDS011;43426;43.594;24.334;2023-07-08T06:46:50;6.15;;;4.45;;
57599;SDS011;43426;43.594;24.334;2023-07-08T06:49:18;4.53;;;4.13;;
57599;SDS011;43426;43.594;24.334;2023-07-08T06:51:46;6.13;;;5.57;;
57599;SDS011;43426;43.594;24.334;2023-07-08T06:54:13;5.20;;;4.70;;
57599;SDS011;43426;43.594;24.334;2023-07-08T06:56:39;7.00;;;4.47;;
57599;SDS011;43426;43.594;24.334;2023-07-08T06:59:08;8.63;;;5.78;;
57599;SDS011;43426;43.594;24.334;2023-07-08T07:01:38;5.20;;;4.70;;
57599;SDS011;43426;43.594;24.334;2023-07-08T07:04:04;5.60;;;5.10;;
57599;SDS011;43426;43.594;24.334;2023-07-08T07:06:29;6.00;;;5.25;;
57599;SDS011;43426;43.594;24.334;2023-07-08T07:08:57;5.22;;;4.00;;
57599;SDS011;43426;43.594;24.334;2023-07-08T07:11:24;4.40;;;3.90;;
57599;SDS011;43426;43.594;24.334;2023-07-08T07:13:50;3.75;;;3.45;;
57599;SDS011;43426;43.594;24.334;2023-07-08T07:16:18;6.32;;;4.13;;
57599;SDS011;43426;43.594;24.334;2023-07-08T07:18:43;4.82;;;4.03;;
57599;SDS011;43426;43.594;24.334;2023-07-08T07:21:12;3.88;;;3.58;;
57599;SDS011;43426;43.594;24.334;2023-07-08T07:23:43;6.72;;;4.57;;
57599;SDS011;43426;43.594;24.334;2023-07-08T07:26:11;4.38;;;4.03;;
57599;SDS011;43426;43.594;24.334;2023-07-08T07:28:42;4.68;;;4.30;;
57599;SDS011;43426;43.594;24.334;2023-07-08T07:31:10;4.25;;;3.90;;
57599;SDS011;43426;43.594;24.334;2023-07-08T07:34:01;4.95;;;4.10;;
57599;SDS011;43426;43.594;24.334;2023-07-08T07:36:27;4.22;;;3.70;;
57599;SDS011;43426;43.594;24.334;2023-07-08T07:38:57;4.57;;;4.18;;
57599;SDS011;43426;43.594;24.334;2023-07-08T07:41:27;3.67;;;3.38;;
57599;SDS011;43426;43.594;24.334;2023-07-08T07:43:55;4.47;;;4.07;;
57599;SDS011;43426;43.594;24.334;2023-07-08T07:46:23;4.95;;;4.13;;
57599;SDS011;43426;43.594;24.334;2023-07-08T07:48:51;12.57;;;3.97;;
57599;SDS011;43426;43.594;24.334;2023-07-08T07:51:16;4.00;;;3.70;;
57599;SDS011;43426;43.594;24.334;2023-07-08T07:53:47;4.00;;;3.70;;
57599;SDS011;43426;43.594;24.334;2023-07-08T07:56:12;6.22;;;4.38;;
57599;SDS011;43426;43.594;24.334;2023-07-08T07:58:40;5.35;;;4.03;;
57599;SDS011;43426;43.594;24.334;2023-07-08T08:01:06;5.63;;;4.63;;
57599;SDS011;43426;43.594;24.334;2023-07-08T08:03:31;6.10;;;5.35;;
57599;SDS011;43426;43.594;24.334;2023-07-08T08:06:06;5.28;;;4.78;;
57599;SDS011;43426;43.594;24.334;2023-07-08T08:08:31;8.25;;;4.75;;
57599;SDS011;43426;43.594;24.334;2023-07-08T08:10:59;4.93;;;4.35;;
57599;SDS011;43426;43.594;24.334;2023-07-08T08:13:29;4.13;;;3.83;;
57599;SDS011;43426;43.594;24.334;2023-07-08T08:16:02;4.90;;;4.35;;
57599;SDS011;43426;43.594;24.334;2023-07-08T08:18:28;5.93;;;4.45;;
57599;SDS011;43426;43.594;24.334;2023-07-08T08:20:55;4.80;;;4.22;;
57599;SDS011;43426;43.594;24.334;2023-07-08T08:23:21;5.03;;;4.63;;
57599;SDS011;43426;43.594;24.334;2023-07-08T08:25:52;4.63;;;4.22;;
57599;SDS011;43426;43.594;24.334;2023-07-08T08:28:21;4.78;;;4.20;;
57599;SDS011;43426;43.594;24.334;2023-07-08T08:30:47;5.10;;;4.70;;
57599;SDS011;43426;43.594;24.334;2023-07-08T08:33:16;4.72;;;4.40;;
57599;SDS011;43426;43.594;24.334;2023-07-08T08:35:45;4.32;;;3.97;;
57599;SDS011;43426;43.594;24.334;2023-07-08T08:38:11;4.70;;;4.30;;
57599;SDS011;43426;43.594;24.334;2023-07-08T08:40:39;5.97;;;4.85;;
57599;SDS011;43426;43.594;24.334;2023-07-08T08:43:07;6.10;;;4.57;;
57599;SDS011;43426;43.594;24.334;2023-07-08T08:46:23;5.22;;;4.82;;
57599;SDS011;43426;43.594;24.334;2023-07-08T08:51:24;4.53;;;4.13;;
57599;SDS011;43426;43.594;24.334;2023-07-08T08:53:52;4.43;;;4.10;;
57599;SDS011;43426;43.594;24.334;2023-07-08T08:56:27;19.58;;;6.38;;
57599;SDS011;43426;43.594;24.334;2023-07-08T08:59:01;42.17;;;9.55;;
57599;SDS011;43426;43.594;24.334;2023-07-08T09:01:38;8.70;;;4.68;;
57599;SDS011;43426;43.594;24.334;2023-07-08T09:04:05;7.50;;;4.18;;
57599;SDS011;43426;43.594;24.334;2023-07-08T09:06:42;5.97;;;4.25;;
57599;SDS011;43426;43.594;24.334;2023-07-08T09:12:18;5.40;;;4.20;;
57599;SDS011;43426;43.594;24.334;2023-07-08T09:14:52;4.63;;;4.10;;
57599;SDS011;43426;43.594;24.334;2023-07-08T09:25:32;6.72;;;4.00;;
57599;SDS011;43426;43.594;24.334;2023-07-08T09:28:06;4.57;;;3.97;;
57599;SDS011;43426;43.594;24.334;2023-07-08T09:30:32;4.22;;;3.88;;
57599;SDS011;43426;43.594;24.334;2023-07-08T09:33:01;4.97;;;4.55;;
57599;SDS011;43426;43.594;24.334;2023-07-08T09:35:41;4.70;;;3.92;;
57599;SDS011;43426;43.594;24.334;2023-07-08T09:38:09;5.93;;;4.65;;
57599;SDS011;43426;43.594;24.334;2023-07-08T09:40:45;11.75;;;6.75;;
57599;SDS011;43426;43.594;24.334;2023-07-08T09:43:28;9.35;;;7.55;;
57599;SDS011;43426;43.594;24.334;2023-07-08T09:46:02;10.95;;;8.77;;
57599;SDS011;43426;43.594;24.334;2023-07-08T09:48:34;14.48;;;7.00;;
57599;SDS011;43426;43.594;24.334;2023-07-08T09:51:01;14.65;;;5.95;;
57599;SDS011;43426;43.594;24.334;2023-07-08T09:53:33;12.80;;;5.30;;
57599;SDS011;43426;43.594;24.334;2023-07-08T09:56:03;12.68;;;5.75;;
57599;SDS011;43426;43.594;24.334;2023-07-08T09:58:33;10.88;;;5.82;;
57599;SDS011;43426;43.594;24.334;2023-07-08T10:01:25;5.20;;;4.68;;
57599;SDS011;43426;43.594;24.334;2023-07-08T10:04:00;5.90;;;4.82;;
57599;SDS011;43426;43.594;24.334;2023-07-08T10:06:31;10.88;;;4.80;;
57599;SDS011;43426;43.594;24.334;2023-07-08T10:09:05;8.40;;;4.20;;
57599;SDS011;43426;43.594;24.334;2023-07-08T10:11:39;5.55;;;3.47;;
57599;SDS011;43426;43.594;24.334;2023-07-08T10:14:34;3.22;;;2.97;;
57599;SDS011;43426;43.594;24.334;2023-07-08T10:17:13;3.47;;;3.17;;
57599;SDS011;43426;43.594;24.334;2023-07-08T10:19:46;4.60;;;2.90;;
57599;SDS011;43426;43.594;24.334;2023-07-08T10:24:52;4.35;;;3.10;;
57599;SDS011;43426;43.594;24.334;2023-07-08T10:27:49;6.38;;;3.05;;
57599;SDS011;43426;43.594;24.334;2023-07-08T10:30:23;5.57;;;2.97;;
57599;SDS011;43426;43.594;24.334;2023-07-08T10:44:04;4.10;;;3.72;;
57599;SDS011;43426;43.594;24.334;2023-07-08T11:00:49;3.50;;;3.20;;
57599;SDS011;43426;43.594;24.334;2023-07-08T11:03:34;3.30;;;3.00;;
57599;SDS011;43426;43.594;24.334;2023-07-08T11:06:41;2.58;;;2.38;;
57599;SDS011;43426;43.594;24.334;2023-07-08T11:09:12;2.83;;;2.63;;
57599;SDS011;43426;43.594;24.334;2023-07-08T11:11:44;2.30;;;2.13;;
57599;SDS011;43426;43.594;24.334;2023-07-08T11:14:42;2.75;;;2.28;;
57599;SDS011;43426;43.594;24.334;2023-07-08T11:20:20;2.97;;;2.78;;
57599;SDS011;43426;43.594;24.334;2023-07-08T11:23:01;6.75;;;3.60;;
57599;SDS011;43426;43.594;24.334;2023-07-08T11:25:35;4.65;;;3.40;;
57599;SDS011;43426;43.594;24.334;2023-07-08T11:28:09;3.55;;;3.25;;
57599;SDS011;43426;43.594;24.334;2023-07-08T11:30:41;3.42;;;3.13;;
57599;SDS011;43426;43.594;24.334;2023-07-08T11:33:11;3.45;;;3.17;;
57599;SDS011;43426;43.594;24.334;2023-07-08T11:35:49;4.00;;;3.70;;
57599;SDS011;43426;43.594;24.334;2023-07-08T11:38:23;5.00;;;3.63;;
57599;SDS011;43426;43.594;24.334;2023-07-08T11:40:57;3.75;;;3.45;;
57599;SDS011;43426;43.594;24.334;2023-07-08T11:43:50;3.95;;;3.40;;
57599;SDS011;43426;43.594;24.334;2023-07-08T11:46:20;4.72;;;3.15;;
57599;SDS011;43426;43.594;24.334;2023-07-08T11:48:51;5.43;;;4.03;;
57599;SDS011;43426;43.594;24.334;2023-07-08T11:51:24;3.15;;;2.95;;
57599;SDS011;43426;43.594;24.334;2023-07-08T11:54:19;3.20;;;2.90;;
57599;SDS011;43426;43.594;24.334;2023-07-08T11:59:28;5.35;;;3.28;;
57599;SDS011;43426;43.594;24.334;2023-07-08T12:02:03;4.60;;;3.30;;
57599;SDS011;43426;43.594;24.334;2023-07-08T12:10:27;2.67;;;2.47;;
57599;SDS011;43426;43.594;24.334;2023-07-08T12:12:53;4.43;;;3.38;;
57599;SDS011;43426;43.594;24.334;2023-07-08T12:15:37;2.80;;;2.60;;
57599;SDS011;43426;43.594;24.334;2023-07-08T12:18:09;2.67;;;2.47;;
57599;SDS011;43426;43.594;24.334;2023-07-08T12:20:40;2.80;;;2.60;;
57599;SDS011;43426;43.594;24.334;2023-07-08T12:23:14;3.20;;;2.90;;
57599;SDS011;43426;43.594;24.334;2023-07-08T12:25:43;2.70;;;2.50;;
57599;SDS011;43426;43.594;24.334;2023-07-08T12:28:12;3.90;;;3.60;;
57599;SDS011;43426;43.594;24.334;2023-07-08T12:30:39;3.42;;;2.97;;
57599;SDS011;43426;43.594;24.334;2023-07-08T12:33:17;3.55;;;3.25;;
57599;SDS011;43426;43.594;24.334;2023-07-08T12:35:50;2.77;;;2.57;;
57599;SDS011;43426;43.594;24.334;2023-07-08T12:38:29;2.67;;;2.47;;
57599;SDS011;43426;43.594;24.334;2023-07-08T12:41:12;2.58;;;2.38;;
57599;SDS011;43426;43.594;24.334;2023-07-08T12:43:50;3.60;;;3.17;;
57599;SDS011;43426;43.594;24.334;2023-07-08T12:46:19;2.90;;;2.25;;
57599;SDS011;43426;43.594;24.334;2023-07-08T12:48:46;3.53;;;2.60;;
57599;SDS011;43426;43.594;24.334;2023-07-08T12:51:22;2.60;;;2.38;;
57599;SDS011;43426;43.594;24.334;2023-07-08T12:53:50;3.90;;;2.58;;
57599;SDS011;43426;43.594;24.334;2023-07-08T12:56:19;2.90;;;2.65;;
57599;SDS011;43426;43.594;24.334;2023-07-08T12:58:53;3.17;;;2.88;;
57599;SDS011;43426;43.594;24.334;2023-07-08T13:01:24;2.58;;;2.38;;
57599;SDS011;43426;43.594;24.334;2023-07-08T13:03:53;2.40;;;2.17;;
57599;SDS011;43426;43.594;24.334;2023-07-08T13:06:25;2.80;;;2.60;;
57599;SDS011;43426;43.594;24.334;2023-07-08T13:08:56;2.65;;;2.20;;
57599;SDS011;43426;43.594;24.334;2023-07-08T13:11:27;2.42;;;1.98;;
57599;SDS011;43426;43.594;24.334;2023-07-08T13:14:01;2.17;;;1.98;;
57599;SDS011;43426;43.594;24.334;2023-07-08T13:16:32;2.60;;;2.05;;
57599;SDS011;43426;43.594;24.334;2023-07-08T13:19:04;2.45;;;1.95;;
57599;SDS011;43426;43.594;24.334;2023-07-08T13:21:32;3.70;;;1.83;;
57599;SDS011;43426;43.594;24.334;2023-07-08T13:24:01;2.55;;;2.08;;
57599;SDS011;43426;43.594;24.334;2023-07-08T13:26:34;2.83;;;2.63;;
57599;SDS011;43426;43.594;24.334;2023-07-08T13:29:04;2.20;;;2.10;;
57599;SDS011;43426;43.594;24.334;2023-07-08T13:31:42;2.05;;;1.90;;
57599;SDS011;43426;43.594;24.334;2023-07-08T13:34:15;2.60;;;2.40;;
57599;SDS011;43426;43.594;24.334;2023-07-08T13:36:46;2.22;;;1.92;;
57599;SDS011;43426;43.594;24.334;2023-07-08T13:39:17;1.85;;;1.42;;
57599;SDS011;43426;43.594;24.334;2023-07-08T13:41:47;3.95;;;1.58;;
57599;SDS011;43426;43.594;24.334;2023-07-08T13:44:18;3.42;;;1.40;;
57599;SDS011;43426;43.594;24.334;2023-07-08T13:49:28;3.05;;;1.15;;
57599;SDS011;43426;43.594;24.334;2023-07-08T13:52:06;1.40;;;1.05;;
57599;SDS011;43426;43.594;24.334;2023-07-08T13:54:51;1.88;;;1.08;;
57599;SDS011;43426;43.594;24.334;2023-07-08T13:57:34;1.85;;;1.27;;
57599;SDS011;43426;43.594;24.334;2023-07-08T14:00:10;1.35;;;1.25;;
57599;SDS011;43426;43.594;24.334;2023-07-08T14:02:42;1.15;;;1.10;;
57599;SDS011;43426;43.594;24.334;2023-07-08T14:05:13;2.08;;;1.13;;
57599;SDS011;43426;43.594;24.334;2023-07-08T14:07:41;1.48;;;1.38;;
57599;SDS011;43426;43.594;24.334;2023-07-08T14:10:13;1.90;;;1.65;;
57599;SDS011;43426;43.594;24.334;2023-07-08T14:12:38;3.28;;;1.50;;
57599;SDS011;43426;43.594;24.334;2023-07-08T14:15:08;1.33;;;1.23;;
57599;SDS011;43426;43.594;24.334;2023-07-08T14:17:40;1.55;;;1.33;;
57599;SDS011;43426;43.594;24.334;2023-07-08T14:20:11;1.77;;;1.30;;
57599;SDS011;43426;43.594;24.334;2023-07-08T14:22:46;2.95;;;1.60;;
57599;SDS011;43426;43.594;24.334;2023-07-08T14:25:13;2.25;;;1.60;;
57599;SDS011;43426;43.594;24.334;2023-07-08T14:27:40;1.88;;;1.73;;
57599;SDS011;43426;43.594;24.334;2023-07-08T14:30:05;1.60;;;1.50;;
57599;SDS011;43426;43.594;24.334;2023-07-08T14:32:34;1.55;;;1.45;;
57599;SDS011;43426;43.594;24.334;2023-07-08T14:35:24;2.33;;;1.40;;
57599;SDS011;43426;43.594;24.334;2023-07-08T14:37:52;1.70;;;1.60;;
57599;SDS011;43426;43.594;24.334;2023-07-08T14:40:26;1.40;;;1.30;;
57599;SDS011;43426;43.594;24.334;2023-07-08T14:42:58;1.90;;;1.40;;
57599;SDS011;43426;43.594;24.334;2023-07-08T14:45:33;1.20;;;1.10;;
57599;SDS011;43426;43.594;24.334;2023-07-08T14:48:08;1.30;;;1.20;;
57599;SDS011;43426;43.594;24.334;2023-07-08T14:50:37;1.10;;;1.00;;
57599;SDS011;43426;43.594;24.334;2023-07-08T14:53:03;1.40;;;1.30;;
57599;SDS011;43426;43.594;24.334;2023-07-08T14:55:29;1.70;;;1.60;;
57599;SDS011;43426;43.594;24.334;2023-07-08T14:57:57;2.80;;;1.63;;
57599;SDS011;43426;43.594;24.334;2023-07-08T15:00:28;1.90;;;1.65;;
57599;SDS011;43426;43.594;24.334;2023-07-08T15:02:56;2.80;;;1.67;;
57599;SDS011;43426;43.594;24.334;2023-07-08T15:05:24;2.15;;;2.05;;
57599;SDS011;43426;43.594;24.334;2023-07-08T15:07:54;3.13;;;2.03;;
57599;SDS011;43426;43.594;24.334;2023-07-08T15:10:28;2.38;;;2.17;;
57599;SDS011;43426;43.594;24.334;2023-07-08T15:13:02;3.65;;;2.03;;
57599;SDS011;43426;43.594;24.334;2023-07-08T15:15:36;2.30;;;2.10;;
57599;SDS011;43426;43.594;24.334;2023-07-08T15:18:12;2.60;;;2.40;;
57599;SDS011;43426;43.594;24.334;2023-07-08T15:20:41;2.53;;;2.33;;
57599;SDS011;43426;43.594;24.334;2023-07-08T15:23:10;2.58;;;2.38;;
57599;SDS011;43426;43.594;24.334;2023-07-08T15:25:39;3.78;;;2.75;;
57599;SDS011;43426;43.594;24.334;2023-07-08T15:28:08;2.83;;;2.63;;
57599;SDS011;43426;43.594;24.334;2023-07-08T15:30:42;4.72;;;4.03;;
57599;SDS011;43426;43.594;24.334;2023-07-08T15:33:08;7.65;;;5.10;;
57599;SDS011;43426;43.594;24.334;2023-07-08T15:35:34;6.90;;;4.18;;
57599;SDS011;43426;43.594;24.334;2023-07-08T15:38:02;12.40;;;7.32;;
57599;SDS011;43426;43.594;24.334;2023-07-08T15:40:33;16.77;;;10.00;;
57599;SDS011;43426;43.594;24.334;2023-07-08T15:43:00;16.75;;;9.30;;
57599;SDS011;43426;43.594;24.334;2023-07-08T15:45:34;11.13;;;9.60;;